sensor_id;sensor_type;location;lat;lon;timestamp;P1;durP1;ratioP1;P2;durP2;ratioP2
16579;SDS011;8402;51.466;6.806;2022-08-19T00:01:38;8.10;;;6.18;;
16579;SDS011;8402;51.466;6.806;2022-08-19T00:04:09;7.30;;;5.28;;
16579;SDS011;8402;51.466;6.806;2022-08-19T00:06:40;7.70;;;5.85;;
16579;SDS011;8402;51.466;6.806;2022-08-19T00:09:10;7.05;;;5.85;;
16579;SDS011;8402;51.466;6.806;2022-08-19T00:11:41;9.20;;;6.15;;
16579;SDS011;8402;51.466;6.806;2022-08-19T00:14:11;7.60;;;6.00;;
16579;SDS011;8402;51.466;6.806;2022-08-19T00:16:41;10.65;;;5.75;;
16579;SDS011;8402;51.466;6.806;2022-08-19T00:19:10;9.00;;;5.43;;
16579;SDS011;8402;51.466;6.806;2022-08-19T00:21:38;7.75;;;5.55;;
16579;SDS011;8402;51.466;6.806;2022-08-19T00:24:07;8.65;;;5.47;;
16579;SDS011;8402;51.466;6.806;2022-08-19T00:26:36;8.00;;;5.63;;
16579;SDS011;8402;51.466;6.806;2022-08-19T00:29:05;6.63;;;5.65;;
16579;SDS011;8402;51.466;6.806;2022-08-19T00:31:36;10.07;;;6.30;;
16579;SDS011;8402;51.466;6.806;2022-08-19T00:34:04;7.32;;;5.38;;
16579;SDS011;8402;51.466;6.806;2022-08-19T00:36:32;6.72;;;5.63;;
16579;SDS011;8402;51.466;6.806;2022-08-19T00:39:00;8.45;;;5.45;;
16579;SDS011;8402;51.466;6.806;2022-08-19T00:41:28;8.60;;;5.63;;
16579;SDS011;8402;51.466;6.806;2022-08-19T00:43:58;7.70;;;5.60;;
16579;SDS011;8402;51.466;6.806;2022-08-19T00:46:28;8.98;;;5.72;;
16579;SDS011;8402;51.466;6.806;2022-08-19T00:49:00;7.20;;;5.35;;
16579;SDS011;8402;51.466;6.806;2022-08-19T00:51:32;6.97;;;5.60;;
16579;SDS011;8402;51.466;6.806;2022-08-19T00:54:00;8.38;;;5.43;;
16579;SDS011;8402;51.466;6.806;2022-08-19T00:56:30;7.53;;;5.63;;
16579;SDS011;8402;51.466;6.806;2022-08-19T00:58:58;7.65;;;6.55;;
16579;SDS011;8402;51.466;6.806;2022-08-19T01:01:28;11.90;;;6.20;;
16579;SDS011;8402;51.466;6.806;2022-08-19T01:03:56;10.93;;;6.70;;
16579;SDS011;8402;51.466;6.806;2022-08-19T01:06:25;8.00;;;6.65;;
16579;SDS011;8402;51.466;6.806;2022-08-19T01:08:54;8.77;;;5.82;;
16579;SDS011;8402;51.466;6.806;2022-08-19T01:11:22;8.52;;;6.15;;
16579;SDS011;8402;51.466;6.806;2022-08-19T01:13:50;8.35;;;6.47;;
16579;SDS011;8402;51.466;6.806;2022-08-19T01:16:20;8.48;;;6.25;;
16579;SDS011;8402;51.466;6.806;2022-08-19T01:18:51;13.15;;;6.35;;
16579;SDS011;8402;51.466;6.806;2022-08-19T01:21:21;7.55;;;6.07;;
16579;SDS011;8402;51.466;6.806;2022-08-19T01:23:55;9.50;;;6.40;;
16579;SDS011;8402;51.466;6.806;2022-08-19T01:26:24;8.05;;;6.03;;
16579;SDS011;8402;51.466;6.806;2022-08-19T01:28:53;7.35;;;6.15;;
16579;SDS011;8402;51.466;6.806;2022-08-19T01:31:27;7.18;;;5.88;;
16579;SDS011;8402;51.466;6.806;2022-08-19T01:33:58;8.13;;;6.22;;
16579;SDS011;8402;51.466;6.806;2022-08-19T01:36:29;10.20;;;6.03;;
16579;SDS011;8402;51.466;6.806;2022-08-19T01:39:06;8.73;;;5.82;;
16579;SDS011;8402;51.466;6.806;2022-08-19T01:41:35;8.82;;;5.90;;
16579;SDS011;8402;51.466;6.806;2022-08-19T01:44:04;8.38;;;6.15;;
16579;SDS011;8402;51.466;6.806;2022-08-19T01:46:44;8.52;;;6.55;;
16579;SDS011;8402;51.466;6.806;2022-08-19T01:49:13;8.05;;;6.30;;
16579;SDS011;8402;51.466;6.806;2022-08-19T01:51:43;10.70;;;6.50;;
16579;SDS011;8402;51.466;6.806;2022-08-19T01:54:13;9.35;;;6.50;;
16579;SDS011;8402;51.466;6.806;2022-08-19T01:56:58;7.60;;;6.72;;
16579;SDS011;8402;51.466;6.806;2022-08-19T01:59:29;8.82;;;6.80;;
16579;SDS011;8402;51.466;6.806;2022-08-19T02:01:58;7.60;;;6.15;;
16579;SDS011;8402;51.466;6.806;2022-08-19T02:04:26;8.15;;;6.10;;
16579;SDS011;8402;51.466;6.806;2022-08-19T02:06:54;10.75;;;6.70;;
16579;SDS011;8402;51.466;6.806;2022-08-19T02:09:23;8.20;;;6.15;;
16579;SDS011;8402;51.466;6.806;2022-08-19T02:11:51;12.45;;;6.85;;
16579;SDS011;8402;51.466;6.806;2022-08-19T02:14:19;8.52;;;6.93;;
16579;SDS011;8402;51.466;6.806;2022-08-19T02:16:47;7.93;;;6.75;;
16579;SDS011;8402;51.466;6.806;2022-08-19T02:19:15;8.13;;;6.95;;
16579;SDS011;8402;51.466;6.806;2022-08-19T02:21:44;10.02;;;6.70;;
16579;SDS011;8402;51.466;6.806;2022-08-19T02:24:12;10.65;;;7.47;;
16579;SDS011;8402;51.466;6.806;2022-08-19T02:26:41;11.88;;;6.95;;
16579;SDS011;8402;51.466;6.806;2022-08-19T02:29:09;9.73;;;7.07;;
16579;SDS011;8402;51.466;6.806;2022-08-19T02:31:38;11.10;;;7.43;;
16579;SDS011;8402;51.466;6.806;2022-08-19T02:34:06;9.75;;;7.22;;
16579;SDS011;8402;51.466;6.806;2022-08-19T02:36:35;9.25;;;7.28;;
16579;SDS011;8402;51.466;6.806;2022-08-19T02:39:07;10.65;;;6.88;;
16579;SDS011;8402;51.466;6.806;2022-08-19T02:41:34;7.70;;;6.68;;
16579;SDS011;8402;51.466;6.806;2022-08-19T02:44:04;9.75;;;7.70;;
16579;SDS011;8402;51.466;6.806;2022-08-19T02:46:52;10.27;;;7.30;;
16579;SDS011;8402;51.466;6.806;2022-08-19T02:49:21;7.60;;;6.80;;
16579;SDS011;8402;51.466;6.806;2022-08-19T02:51:49;9.45;;;7.00;;
16579;SDS011;8402;51.466;6.806;2022-08-19T02:54:17;10.90;;;7.00;;
16579;SDS011;8402;51.466;6.806;2022-08-19T02:56:46;11.30;;;6.95;;
16579;SDS011;8402;51.466;6.806;2022-08-19T02:59:15;9.98;;;7.60;;
16579;SDS011;8402;51.466;6.806;2022-08-19T03:01:46;8.73;;;6.88;;
16579;SDS011;8402;51.466;6.806;2022-08-19T03:04:15;11.68;;;7.57;;
16579;SDS011;8402;51.466;6.806;2022-08-19T03:06:44;9.13;;;6.90;;
16579;SDS011;8402;51.466;6.806;2022-08-19T03:09:13;12.68;;;7.90;;
16579;SDS011;8402;51.466;6.806;2022-08-19T03:11:42;14.45;;;7.60;;
16579;SDS011;8402;51.466;6.806;2022-08-19T03:14:10;10.15;;;7.95;;
16579;SDS011;8402;51.466;6.806;2022-08-19T03:16:41;10.88;;;7.88;;
16579;SDS011;8402;51.466;6.806;2022-08-19T03:19:11;12.05;;;7.82;;
16579;SDS011;8402;51.466;6.806;2022-08-19T03:21:39;11.73;;;8.38;;
16579;SDS011;8402;51.466;6.806;2022-08-19T03:24:11;9.20;;;7.38;;
16579;SDS011;8402;51.466;6.806;2022-08-19T03:26:39;9.65;;;7.45;;
16579;SDS011;8402;51.466;6.806;2022-08-19T03:29:09;9.60;;;7.03;;
16579;SDS011;8402;51.466;6.806;2022-08-19T03:31:41;11.10;;;7.88;;
16579;SDS011;8402;51.466;6.806;2022-08-19T03:34:19;8.68;;;7.57;;
16579;SDS011;8402;51.466;6.806;2022-08-19T03:36:50;16.52;;;8.90;;
16579;SDS011;8402;51.466;6.806;2022-08-19T03:39:18;9.20;;;7.65;;
16579;SDS011;8402;51.466;6.806;2022-08-19T03:41:46;12.13;;;7.40;;
16579;SDS011;8402;51.466;6.806;2022-08-19T03:44:36;9.68;;;7.85;;
16579;SDS011;8402;51.466;6.806;2022-08-19T03:47:06;11.32;;;7.47;;
16579;SDS011;8402;51.466;6.806;2022-08-19T03:49:34;10.73;;;7.15;;
16579;SDS011;8402;51.466;6.806;2022-08-19T03:52:03;12.43;;;8.35;;
16579;SDS011;8402;51.466;6.806;2022-08-19T03:54:34;10.52;;;7.43;;
16579;SDS011;8402;51.466;6.806;2022-08-19T03:57:04;17.58;;;7.97;;
16579;SDS011;8402;51.466;6.806;2022-08-19T03:59:33;10.05;;;7.43;;
16579;SDS011;8402;51.466;6.806;2022-08-19T04:02:07;13.63;;;7.80;;
16579;SDS011;8402;51.466;6.806;2022-08-19T04:04:37;11.65;;;7.78;;
16579;SDS011;8402;51.466;6.806;2022-08-19T04:07:06;16.48;;;8.25;;
16579;SDS011;8402;51.466;6.806;2022-08-19T04:09:35;12.07;;;7.47;;
16579;SDS011;8402;51.466;6.806;2022-08-19T04:12:04;14.93;;;8.35;;
16579;SDS011;8402;51.466;6.806;2022-08-19T04:14:33;9.30;;;7.55;;
16579;SDS011;8402;51.466;6.806;2022-08-19T04:17:02;9.13;;;7.35;;
16579;SDS011;8402;51.466;6.806;2022-08-19T04:19:33;10.50;;;8.05;;
16579;SDS011;8402;51.466;6.806;2022-08-19T04:22:02;9.93;;;7.55;;
16579;SDS011;8402;51.466;6.806;2022-08-19T04:24:31;10.80;;;7.18;;
16579;SDS011;8402;51.466;6.806;2022-08-19T04:26:59;14.30;;;7.55;;
16579;SDS011;8402;51.466;6.806;2022-08-19T04:29:28;11.52;;;7.85;;
16579;SDS011;8402;51.466;6.806;2022-08-19T04:31:57;10.40;;;7.35;;
16579;SDS011;8402;51.466;6.806;2022-08-19T04:34:36;10.00;;;7.63;;
16579;SDS011;8402;51.466;6.806;2022-08-19T04:37:24;9.35;;;7.72;;
16579;SDS011;8402;51.466;6.806;2022-08-19T04:40:00;9.38;;;7.53;;
16579;SDS011;8402;51.466;6.806;2022-08-19T04:42:46;10.35;;;7.13;;
16579;SDS011;8402;51.466;6.806;2022-08-19T04:45:14;10.45;;;7.93;;
16579;SDS011;8402;51.466;6.806;2022-08-19T04:47:43;11.50;;;7.80;;
16579;SDS011;8402;51.466;6.806;2022-08-19T04:50:25;12.15;;;7.93;;
16579;SDS011;8402;51.466;6.806;2022-08-19T04:52:54;11.63;;;8.65;;
16579;SDS011;8402;51.466;6.806;2022-08-19T04:55:23;11.93;;;8.60;;
16579;SDS011;8402;51.466;6.806;2022-08-19T04:57:52;13.18;;;8.50;;
16579;SDS011;8402;51.466;6.806;2022-08-19T05:00:20;14.40;;;8.27;;
16579;SDS011;8402;51.466;6.806;2022-08-19T05:02:48;15.43;;;9.00;;
16579;SDS011;8402;51.466;6.806;2022-08-19T05:05:16;9.73;;;7.15;;
16579;SDS011;8402;51.466;6.806;2022-08-19T05:07:46;11.95;;;8.48;;
16579;SDS011;8402;51.466;6.806;2022-08-19T05:10:14;13.35;;;7.88;;
16579;SDS011;8402;51.466;6.806;2022-08-19T05:12:42;11.75;;;8.35;;
16579;SDS011;8402;51.466;6.806;2022-08-19T05:15:10;11.38;;;8.50;;
16579;SDS011;8402;51.466;6.806;2022-08-19T05:17:38;12.18;;;8.13;;
16579;SDS011;8402;51.466;6.806;2022-08-19T05:20:27;12.15;;;8.02;;
16579;SDS011;8402;51.466;6.806;2022-08-19T05:23:14;15.90;;;9.60;;
16579;SDS011;8402;51.466;6.806;2022-08-19T05:25:47;14.25;;;9.25;;
16579;SDS011;8402;51.466;6.806;2022-08-19T05:28:16;13.95;;;8.88;;
16579;SDS011;8402;51.466;6.806;2022-08-19T05:30:44;11.10;;;8.52;;
16579;SDS011;8402;51.466;6.806;2022-08-19T05:33:13;14.30;;;9.25;;
16579;SDS011;8402;51.466;6.806;2022-08-19T05:35:41;13.85;;;9.75;;
16579;SDS011;8402;51.466;6.806;2022-08-19T05:38:10;15.27;;;10.35;;
16579;SDS011;8402;51.466;6.806;2022-08-19T05:40:40;14.80;;;10.60;;
16579;SDS011;8402;51.466;6.806;2022-08-19T05:43:08;14.50;;;9.63;;
16579;SDS011;8402;51.466;6.806;2022-08-19T05:45:38;14.85;;;11.00;;
16579;SDS011;8402;51.466;6.806;2022-08-19T05:48:08;17.13;;;10.95;;
16579;SDS011;8402;51.466;6.806;2022-08-19T05:50:38;15.93;;;11.48;;
16579;SDS011;8402;51.466;6.806;2022-08-19T05:53:06;16.23;;;12.43;;
16579;SDS011;8402;51.466;6.806;2022-08-19T05:55:35;20.45;;;14.52;;
16579;SDS011;8402;51.466;6.806;2022-08-19T05:58:07;24.50;;;16.10;;
16579;SDS011;8402;51.466;6.806;2022-08-19T06:00:35;20.95;;;14.63;;
16579;SDS011;8402;51.466;6.806;2022-08-19T06:03:04;24.90;;;16.08;;
16579;SDS011;8402;51.466;6.806;2022-08-19T06:05:38;24.40;;;17.17;;
16579;SDS011;8402;51.466;6.806;2022-08-19T06:08:17;22.50;;;16.50;;
16579;SDS011;8402;51.466;6.806;2022-08-19T06:11:10;25.35;;;15.90;;
16579;SDS011;8402;51.466;6.806;2022-08-19T06:13:41;29.48;;;17.83;;
16579;SDS011;8402;51.466;6.806;2022-08-19T06:16:09;27.17;;;16.83;;
16579;SDS011;8402;51.466;6.806;2022-08-19T06:18:37;29.67;;;19.02;;
16579;SDS011;8402;51.466;6.806;2022-08-19T06:21:05;26.38;;;18.30;;
16579;SDS011;8402;51.466;6.806;2022-08-19T06:23:33;29.77;;;19.75;;
16579;SDS011;8402;51.466;6.806;2022-08-19T06:26:01;27.13;;;18.05;;
16579;SDS011;8402;51.466;6.806;2022-08-19T06:28:29;33.60;;;18.70;;
16579;SDS011;8402;51.466;6.806;2022-08-19T06:30:58;28.42;;;19.92;;
16579;SDS011;8402;51.466;6.806;2022-08-19T06:33:27;30.20;;;21.92;;
16579;SDS011;8402;51.466;6.806;2022-08-19T06:35:56;36.42;;;22.52;;
16579;SDS011;8402;51.466;6.806;2022-08-19T06:38:24;37.53;;;23.75;;
16579;SDS011;8402;51.466;6.806;2022-08-19T06:40:59;38.90;;;25.23;;
16579;SDS011;8402;51.466;6.806;2022-08-19T06:43:33;35.90;;;23.10;;
16579;SDS011;8402;51.466;6.806;2022-08-19T06:46:11;36.30;;;24.90;;
16579;SDS011;8402;51.466;6.806;2022-08-19T06:48:40;42.58;;;25.10;;
16579;SDS011;8402;51.466;6.806;2022-08-19T06:51:11;43.00;;;26.98;;
16579;SDS011;8402;51.466;6.806;2022-08-19T06:53:44;42.20;;;28.48;;
16579;SDS011;8402;51.466;6.806;2022-08-19T06:56:14;51.10;;;28.73;;
16579;SDS011;8402;51.466;6.806;2022-08-19T06:58:43;43.22;;;28.25;;
16579;SDS011;8402;51.466;6.806;2022-08-19T07:01:14;47.45;;;29.67;;
16579;SDS011;8402;51.466;6.806;2022-08-19T07:03:42;45.90;;;28.65;;
16579;SDS011;8402;51.466;6.806;2022-08-19T07:06:10;46.05;;;30.75;;
16579;SDS011;8402;51.466;6.806;2022-08-19T07:09:01;46.42;;;29.65;;
16579;SDS011;8402;51.466;6.806;2022-08-19T07:11:31;52.20;;;33.42;;
16579;SDS011;8402;51.466;6.806;2022-08-19T07:13:59;48.65;;;34.22;;
16579;SDS011;8402;51.466;6.806;2022-08-19T07:16:29;50.92;;;33.92;;
16579;SDS011;8402;51.466;6.806;2022-08-19T07:18:58;47.78;;;34.70;;
16579;SDS011;8402;51.466;6.806;2022-08-19T07:21:41;47.72;;;31.10;;
16579;SDS011;8402;51.466;6.806;2022-08-19T07:24:10;43.25;;;30.25;;
16579;SDS011;8402;51.466;6.806;2022-08-19T07:26:39;52.17;;;34.22;;
16579;SDS011;8402;51.466;6.806;2022-08-19T07:29:09;53.47;;;34.97;;
16579;SDS011;8402;51.466;6.806;2022-08-19T07:31:40;50.28;;;32.90;;
16579;SDS011;8402;51.466;6.806;2022-08-19T07:34:09;47.60;;;30.90;;
16579;SDS011;8402;51.466;6.806;2022-08-19T07:36:40;42.45;;;30.13;;
16579;SDS011;8402;51.466;6.806;2022-08-19T07:39:10;43.20;;;30.70;;
16579;SDS011;8402;51.466;6.806;2022-08-19T07:41:40;42.08;;;29.65;;
16579;SDS011;8402;51.466;6.806;2022-08-19T07:44:09;42.30;;;30.45;;
16579;SDS011;8402;51.466;6.806;2022-08-19T07:46:41;42.05;;;29.25;;
16579;SDS011;8402;51.466;6.806;2022-08-19T07:49:16;36.38;;;26.05;;
16579;SDS011;8402;51.466;6.806;2022-08-19T07:51:45;37.17;;;27.58;;
16579;SDS011;8402;51.466;6.806;2022-08-19T07:54:15;41.25;;;27.17;;
16579;SDS011;8402;51.466;6.806;2022-08-19T07:56:44;39.20;;;25.15;;
16579;SDS011;8402;51.466;6.806;2022-08-19T07:59:11;33.35;;;24.15;;
16579;SDS011;8402;51.466;6.806;2022-08-19T08:01:42;35.42;;;24.95;;
16579;SDS011;8402;51.466;6.806;2022-08-19T08:04:10;36.45;;;24.67;;
16579;SDS011;8402;51.466;6.806;2022-08-19T08:06:56;33.88;;;24.13;;
16579;SDS011;8402;51.466;6.806;2022-08-19T08:09:42;29.80;;;22.33;;
16579;SDS011;8402;51.466;6.806;2022-08-19T08:12:16;29.27;;;21.95;;
16579;SDS011;8402;51.466;6.806;2022-08-19T08:14:59;30.42;;;23.08;;
16579;SDS011;8402;51.466;6.806;2022-08-19T08:17:34;30.95;;;22.38;;
16579;SDS011;8402;51.466;6.806;2022-08-19T08:20:16;29.92;;;21.33;;
16579;SDS011;8402;51.466;6.806;2022-08-19T08:22:45;28.27;;;21.85;;
16579;SDS011;8402;51.466;6.806;2022-08-19T08:25:32;28.60;;;18.95;;
16579;SDS011;8402;51.466;6.806;2022-08-19T08:28:03;29.90;;;19.25;;
16579;SDS011;8402;51.466;6.806;2022-08-19T08:30:31;21.90;;;15.60;;
16579;SDS011;8402;51.466;6.806;2022-08-19T08:33:03;20.55;;;14.05;;
16579;SDS011;8402;51.466;6.806;2022-08-19T08:35:32;19.23;;;14.40;;
16579;SDS011;8402;51.466;6.806;2022-08-19T08:38:00;17.70;;;14.38;;
16579;SDS011;8402;51.466;6.806;2022-08-19T08:40:37;21.48;;;15.02;;
16579;SDS011;8402;51.466;6.806;2022-08-19T08:43:11;21.98;;;14.95;;
16579;SDS011;8402;51.466;6.806;2022-08-19T08:45:48;17.13;;;13.25;;
16579;SDS011;8402;51.466;6.806;2022-08-19T08:48:27;17.67;;;13.93;;
16579;SDS011;8402;51.466;6.806;2022-08-19T08:51:03;17.88;;;11.50;;
16579;SDS011;8402;51.466;6.806;2022-08-19T08:53:35;19.25;;;14.57;;
16579;SDS011;8402;51.466;6.806;2022-08-19T08:56:08;19.25;;;13.65;;
16579;SDS011;8402;51.466;6.806;2022-08-19T08:58:44;20.42;;;12.60;;
16579;SDS011;8402;51.466;6.806;2022-08-19T09:01:20;21.75;;;14.20;;
16579;SDS011;8402;51.466;6.806;2022-08-19T09:03:50;19.23;;;14.15;;
16579;SDS011;8402;51.466;6.806;2022-08-19T09:06:19;16.63;;;11.93;;
16579;SDS011;8402;51.466;6.806;2022-08-19T09:08:54;12.48;;;9.60;;
16579;SDS011;8402;51.466;6.806;2022-08-19T09:11:40;13.65;;;9.50;;
16579;SDS011;8402;51.466;6.806;2022-08-19T09:14:22;11.05;;;9.52;;
16579;SDS011;8402;51.466;6.806;2022-08-19T09:17:17;14.63;;;10.63;;
16579;SDS011;8402;51.466;6.806;2022-08-19T09:19:50;14.35;;;11.63;;
16579;SDS011;8402;51.466;6.806;2022-08-19T09:22:19;16.83;;;12.43;;
16579;SDS011;8402;51.466;6.806;2022-08-19T09:24:51;16.75;;;13.82;;
16579;SDS011;8402;51.466;6.806;2022-08-19T09:27:20;18.65;;;14.20;;
16579;SDS011;8402;51.466;6.806;2022-08-19T09:30:10;18.73;;;13.55;;
16579;SDS011;8402;51.466;6.806;2022-08-19T09:32:41;21.58;;;16.73;;
16579;SDS011;8402;51.466;6.806;2022-08-19T09:35:11;22.73;;;17.17;;
16579;SDS011;8402;51.466;6.806;2022-08-19T09:37:40;25.65;;;19.30;;
16579;SDS011;8402;51.466;6.806;2022-08-19T09:40:12;24.45;;;19.05;;
16579;SDS011;8402;51.466;6.806;2022-08-19T09:42:41;21.58;;;16.70;;
16579;SDS011;8402;51.466;6.806;2022-08-19T09:45:18;24.83;;;17.70;;
16579;SDS011;8402;51.466;6.806;2022-08-19T09:47:49;23.77;;;17.33;;
16579;SDS011;8402;51.466;6.806;2022-08-19T09:50:21;23.02;;;17.30;;
16579;SDS011;8402;51.466;6.806;2022-08-19T09:52:51;25.65;;;19.05;;
16579;SDS011;8402;51.466;6.806;2022-08-19T09:55:24;28.70;;;19.40;;
16579;SDS011;8402;51.466;6.806;2022-08-19T09:57:56;24.98;;;18.63;;
16579;SDS011;8402;51.466;6.806;2022-08-19T10:00:24;24.80;;;19.85;;
16579;SDS011;8402;51.466;6.806;2022-08-19T10:02:53;25.80;;;18.80;;
16579;SDS011;8402;51.466;6.806;2022-08-19T10:05:23;26.02;;;20.05;;
16579;SDS011;8402;51.466;6.806;2022-08-19T10:08:08;27.75;;;20.20;;
16579;SDS011;8402;51.466;6.806;2022-08-19T10:10:39;24.42;;;18.85;;
16579;SDS011;8402;51.466;6.806;2022-08-19T10:13:12;21.80;;;16.92;;
16579;SDS011;8402;51.466;6.806;2022-08-19T10:15:40;26.52;;;19.08;;
16579;SDS011;8402;51.466;6.806;2022-08-19T10:18:13;27.00;;;19.00;;
16579;SDS011;8402;51.466;6.806;2022-08-19T10:20:44;25.10;;;19.60;;
16579;SDS011;8402;51.466;6.806;2022-08-19T10:23:17;28.10;;;20.92;;
16579;SDS011;8402;51.466;6.806;2022-08-19T10:25:45;27.02;;;20.52;;
16579;SDS011;8402;51.466;6.806;2022-08-19T10:28:14;21.85;;;17.95;;
16579;SDS011;8402;51.466;6.806;2022-08-19T10:30:45;23.58;;;18.88;;
16579;SDS011;8402;51.466;6.806;2022-08-19T10:33:14;22.38;;;19.00;;
16579;SDS011;8402;51.466;6.806;2022-08-19T10:36:04;25.13;;;20.73;;
16579;SDS011;8402;51.466;6.806;2022-08-19T10:38:34;26.27;;;19.88;;
16579;SDS011;8402;51.466;6.806;2022-08-19T10:41:07;19.83;;;15.60;;
16579;SDS011;8402;51.466;6.806;2022-08-19T10:43:36;21.55;;;16.20;;
16579;SDS011;8402;51.466;6.806;2022-08-19T10:46:05;21.40;;;15.02;;
16579;SDS011;8402;51.466;6.806;2022-08-19T10:48:39;19.02;;;15.95;;
16579;SDS011;8402;51.466;6.806;2022-08-19T10:51:09;21.30;;;16.02;;
16579;SDS011;8402;51.466;6.806;2022-08-19T10:53:55;24.30;;;15.38;;
16579;SDS011;8402;51.466;6.806;2022-08-19T10:56:24;19.63;;;13.95;;
16579;SDS011;8402;51.466;6.806;2022-08-19T10:59:11;16.42;;;13.57;;
16579;SDS011;8402;51.466;6.806;2022-08-19T11:01:41;16.05;;;12.43;;
16579;SDS011;8402;51.466;6.806;2022-08-19T11:04:10;17.05;;;12.55;;
16579;SDS011;8402;51.466;6.806;2022-08-19T11:06:41;12.98;;;11.25;;
16579;SDS011;8402;51.466;6.806;2022-08-19T11:09:09;15.25;;;12.23;;
16579;SDS011;8402;51.466;6.806;2022-08-19T11:11:39;16.98;;;12.85;;
16579;SDS011;8402;51.466;6.806;2022-08-19T11:14:08;17.35;;;12.13;;
16579;SDS011;8402;51.466;6.806;2022-08-19T11:16:37;12.07;;;10.75;;
16579;SDS011;8402;51.466;6.806;2022-08-19T11:19:06;14.73;;;10.82;;
16579;SDS011;8402;51.466;6.806;2022-08-19T11:21:35;14.75;;;10.88;;
16579;SDS011;8402;51.466;6.806;2022-08-19T11:24:07;13.05;;;11.05;;
16579;SDS011;8402;51.466;6.806;2022-08-19T11:26:38;17.52;;;11.35;;
16579;SDS011;8402;51.466;6.806;2022-08-19T11:29:08;13.00;;;9.70;;
16579;SDS011;8402;51.466;6.806;2022-08-19T11:31:39;14.77;;;12.32;;
16579;SDS011;8402;51.466;6.806;2022-08-19T11:34:09;12.63;;;11.02;;
16579;SDS011;8402;51.466;6.806;2022-08-19T11:36:40;13.88;;;11.07;;
16579;SDS011;8402;51.466;6.806;2022-08-19T11:39:12;18.20;;;10.68;;
16579;SDS011;8402;51.466;6.806;2022-08-19T11:41:41;15.07;;;9.55;;
16579;SDS011;8402;51.466;6.806;2022-08-19T11:44:10;10.98;;;9.20;;
16579;SDS011;8402;51.466;6.806;2022-08-19T11:46:40;11.02;;;9.95;;
16579;SDS011;8402;51.466;6.806;2022-08-19T11:49:12;10.73;;;9.15;;
16579;SDS011;8402;51.466;6.806;2022-08-19T11:51:42;10.55;;;9.30;;
16579;SDS011;8402;51.466;6.806;2022-08-19T11:54:12;12.25;;;8.82;;
16579;SDS011;8402;51.466;6.806;2022-08-19T11:56:42;12.40;;;9.43;;
16579;SDS011;8402;51.466;6.806;2022-08-19T11:59:11;10.85;;;9.55;;
16579;SDS011;8402;51.466;6.806;2022-08-19T12:01:40;11.32;;;9.68;;
16579;SDS011;8402;51.466;6.806;2022-08-19T12:04:09;10.93;;;9.82;;
16579;SDS011;8402;51.466;6.806;2022-08-19T12:06:38;15.38;;;9.10;;
16579;SDS011;8402;51.466;6.806;2022-08-19T12:09:08;9.00;;;7.72;;
16579;SDS011;8402;51.466;6.806;2022-08-19T12:11:39;11.90;;;8.50;;
16579;SDS011;8402;51.466;6.806;2022-08-19T12:14:09;9.30;;;8.35;;
16579;SDS011;8402;51.466;6.806;2022-08-19T12:16:43;12.00;;;8.48;;
16579;SDS011;8402;51.466;6.806;2022-08-19T12:19:17;14.15;;;8.75;;
16579;SDS011;8402;51.466;6.806;2022-08-19T12:21:48;13.63;;;9.50;;
16579;SDS011;8402;51.466;6.806;2022-08-19T12:24:16;9.77;;;8.35;;
16579;SDS011;8402;51.466;6.806;2022-08-19T12:26:52;9.60;;;8.65;;
16579;SDS011;8402;51.466;6.806;2022-08-19T12:29:26;14.00;;;8.85;;
16579;SDS011;8402;51.466;6.806;2022-08-19T12:31:55;9.48;;;8.48;;
16579;SDS011;8402;51.466;6.806;2022-08-19T12:34:29;9.27;;;8.40;;
16579;SDS011;8402;51.466;6.806;2022-08-19T12:36:58;9.95;;;7.93;;
16579;SDS011;8402;51.466;6.806;2022-08-19T12:39:29;7.95;;;6.95;;
16579;SDS011;8402;51.466;6.806;2022-08-19T12:41:59;8.45;;;7.60;;
16579;SDS011;8402;51.466;6.806;2022-08-19T12:44:27;9.30;;;7.90;;
16579;SDS011;8402;51.466;6.806;2022-08-19T12:46:58;9.60;;;8.52;;
16579;SDS011;8402;51.466;6.806;2022-08-19T12:49:30;9.63;;;7.78;;
16579;SDS011;8402;51.466;6.806;2022-08-19T12:52:19;7.15;;;6.32;;
16579;SDS011;8402;51.466;6.806;2022-08-19T12:54:49;8.55;;;6.03;;
16579;SDS011;8402;51.466;6.806;2022-08-19T12:57:21;6.70;;;6.00;;
16579;SDS011;8402;51.466;6.806;2022-08-19T12:59:58;8.73;;;6.07;;
16579;SDS011;8402;51.466;6.806;2022-08-19T13:02:30;8.68;;;6.55;;
16579;SDS011;8402;51.466;6.806;2022-08-19T13:05:05;9.23;;;6.10;;
16579;SDS011;8402;51.466;6.806;2022-08-19T13:07:35;7.18;;;6.32;;
16579;SDS011;8402;51.466;6.806;2022-08-19T13:10:05;9.40;;;6.18;;
16579;SDS011;8402;51.466;6.806;2022-08-19T13:12:35;10.07;;;6.20;;
16579;SDS011;8402;51.466;6.806;2022-08-19T13:15:04;6.57;;;5.88;;
16579;SDS011;8402;51.466;6.806;2022-08-19T13:17:36;8.77;;;6.43;;
16579;SDS011;8402;51.466;6.806;2022-08-19T13:20:07;7.47;;;5.70;;
16579;SDS011;8402;51.466;6.806;2022-08-19T13:22:37;6.65;;;5.95;;
16579;SDS011;8402;51.466;6.806;2022-08-19T13:25:06;7.25;;;5.57;;
16579;SDS011;8402;51.466;6.806;2022-08-19T13:27:38;10.55;;;6.10;;
16579;SDS011;8402;51.466;6.806;2022-08-19T13:30:08;10.65;;;6.50;;
16579;SDS011;8402;51.466;6.806;2022-08-19T13:32:55;6.88;;;6.20;;
16579;SDS011;8402;51.466;6.806;2022-08-19T13:35:46;8.25;;;6.97;;
16579;SDS011;8402;51.466;6.806;2022-08-19T13:38:17;7.63;;;6.88;;
16579;SDS011;8402;51.466;6.806;2022-08-19T13:40:47;8.07;;;7.18;;
16579;SDS011;8402;51.466;6.806;2022-08-19T13:43:18;7.40;;;6.70;;
16579;SDS011;8402;51.466;6.806;2022-08-19T13:45:49;8.77;;;6.88;;
16579;SDS011;8402;51.466;6.806;2022-08-19T13:48:20;7.00;;;6.32;;
16579;SDS011;8402;51.466;6.806;2022-08-19T13:50:48;10.45;;;6.78;;
16579;SDS011;8402;51.466;6.806;2022-08-19T13:53:16;9.82;;;6.63;;
16579;SDS011;8402;51.466;6.806;2022-08-19T13:55:45;6.68;;;6.03;;
16579;SDS011;8402;51.466;6.806;2022-08-19T13:58:14;8.82;;;6.63;;
16579;SDS011;8402;51.466;6.806;2022-08-19T14:00:44;8.18;;;6.57;;
16579;SDS011;8402;51.466;6.806;2022-08-19T14:03:13;9.25;;;7.07;;
16579;SDS011;8402;51.466;6.806;2022-08-19T14:05:42;8.05;;;7.25;;
16579;SDS011;8402;51.466;6.806;2022-08-19T14:08:10;8.43;;;7.35;;
16579;SDS011;8402;51.466;6.806;2022-08-19T14:10:40;8.52;;;7.72;;
16579;SDS011;8402;51.466;6.806;2022-08-19T14:13:12;8.07;;;7.30;;
16579;SDS011;8402;51.466;6.806;2022-08-19T14:15:41;8.25;;;7.45;;
16579;SDS011;8402;51.466;6.806;2022-08-19T14:18:11;8.82;;;7.85;;
16579;SDS011;8402;51.466;6.806;2022-08-19T14:20:39;10.05;;;9.07;;
16579;SDS011;8402;51.466;6.806;2022-08-19T14:23:07;10.85;;;8.82;;
16579;SDS011;8402;51.466;6.806;2022-08-19T14:25:35;10.48;;;9.13;;
16579;SDS011;8402;51.466;6.806;2022-08-19T14:28:03;8.98;;;8.18;;
16579;SDS011;8402;51.466;6.806;2022-08-19T14:30:34;9.48;;;8.57;;
16579;SDS011;8402;51.466;6.806;2022-08-19T14:33:05;9.18;;;7.75;;
16579;SDS011;8402;51.466;6.806;2022-08-19T14:35:36;9.10;;;8.07;;
16579;SDS011;8402;51.466;6.806;2022-08-19T14:38:05;8.13;;;7.35;;
16579;SDS011;8402;51.466;6.806;2022-08-19T14:40:34;7.45;;;6.70;;
16579;SDS011;8402;51.466;6.806;2022-08-19T14:43:02;9.68;;;6.93;;
16579;SDS011;8402;51.466;6.806;2022-08-19T14:45:33;9.63;;;7.65;;
16579;SDS011;8402;51.466;6.806;2022-08-19T14:48:02;8.45;;;7.07;;
16579;SDS011;8402;51.466;6.806;2022-08-19T14:50:32;9.60;;;6.57;;
16579;SDS011;8402;51.466;6.806;2022-08-19T14:53:03;7.03;;;6.32;;
16579;SDS011;8402;51.466;6.806;2022-08-19T14:55:40;8.60;;;5.68;;
16579;SDS011;8402;51.466;6.806;2022-08-19T14:58:09;6.55;;;5.75;;
16579;SDS011;8402;51.466;6.806;2022-08-19T15:00:55;6.63;;;5.90;;
16579;SDS011;8402;51.466;6.806;2022-08-19T15:03:25;6.22;;;5.63;;
16579;SDS011;8402;51.466;6.806;2022-08-19T15:05:53;6.45;;;5.72;;
16579;SDS011;8402;51.466;6.806;2022-08-19T15:08:24;6.25;;;5.65;;
16579;SDS011;8402;51.466;6.806;2022-08-19T15:10:52;6.78;;;5.43;;
16579;SDS011;8402;51.466;6.806;2022-08-19T15:13:20;6.82;;;6.18;;